Time,TemperatureF,DewpointF,PressureIn,WindDirection,WindDirectionDegrees,WindSpeedMPH,WindSpeedGustMPH,Humidity,HourlyPrecipIn,Conditions,Clouds,dailyrainin,SoftwareType,DateUTC
2013-03-18 00:00:00,20.8,2.2,30.31,WNW,298,0.0,4.0,44,0.00,,,0.00,WUHU216DAVISVP2,2013-03-18 04:00:00,
2013-03-18 00:05:00,20.6,3.0,30.31,NNW,331,0.0,1.0,46,0.00,,,0.00,WUHU216DAVISVP2,2013-03-18 04:05:00,
2013-03-18 00:10:00,20.4,2.3,30.31,NNW,340,2.0,2.0,45,0.00,,,0.00,WUHU216DAVISVP2,2013-03-18 04:10:00,
2013-03-18 00:15:00,20.0,2.9,30.31,NNW,340,0.0,2.0,47,0.00,,,0.00,WUHU216DAVISVP2,2013-03-18 04:15:00,
2013-03-18 00:20:00,19.6,3.0,30.31,NNW,340,1.2,2.0,48,0.00,,,0.00,WUHU216DAVISVP2,2013-03-18 04:20:00,
2013-03-18 00:25:00,19.4,3.3,30.31,NNW,340,2.0,2.0,49,0.00,,,0.00,WUHU216DAVISVP2,2013-03-18 04:25:00,
2013-03-18 00:30:00,19.4,2.8,30.32,NE,40,1.8,4.0,48,0.00,,,0.00,WUHU216DAVISVP2,2013-03-18 04:30:00,
2013-03-18 00:35:00,19.7,2.1,30.33,North,3,2.6,5.0,46,0.00,,,0.00,WUHU216DAVISVP2,2013-03-18 04:35:00,
2013-03-18 00:40:00,19.8,2.2,30.33,North,354,2.0,5.0,46,0.00,,,0.00,WUHU216DAVISVP2,2013-03-18 04:40:00,
2013-03-18 00:45:00,19.7,2.1,30.33,NNW,327,1.4,5.0,46,0.00,,,0.00,WUHU216DAVISVP2,2013-03-18 04:45:00,
2013-03-18 00:50:00,19.6,2.5,30.33,NW,304,2.0,5.0,47,0.00,,,0.00,WUHU216DAVISVP2,2013-03-18 04:50:00,
2013-03-18 00:55:00,19.4,2.3,30.33,North,355,1.1,6.0,47,0.00,,,0.00,WUHU216DAVISVP2,2013-03-18 04:55:00,
2013-03-18 01:00:00,19.2,2.6,30.33,WNW,300,1.3,6.0,48,0.00,,,0.00,WUHU216DAVISVP2,2013-03-18 05:00:00,
2013-03-18 01:05:00,19.1,2.5,30.34,WNW,300,0.0,6.0,48,0.00,,,0.00,WUHU216DAVISVP2,2013-03-18 05:05:00,
2013-03-18 01:10:00,19.1,2.5,30.34,NW,317,1.0,4.0,48,0.00,,,0.00,WUHU216DAVISVP2,2013-03-18 05:10:00,
2013-03-18 01:15:00,19.0,2.4,30.34,NNE,12,2.0,4.0,48,0.00,,,0.00,WUHU216DAVISVP2,2013-03-18 05:15:00,
2013-03-18 01:20:00,19.0,2.4,30.34,NNE,12,0.0,2.0,48,0.00,,,0.00,WUHU216DAVISVP2,2013-03-18 05:20:00,
2013-03-18 01:25:00,18.8,2.7,30.35,NNE,12,1.0,2.0,49,0.00,,,0.00,WUHU216DAVISVP2,2013-03-18 05:25:00,
2013-03-18 01:30:00,18.6,3.8,30.34,NNE,12,0.0,2.0,52,0.00,,,0.00,WUHU216DAVISVP2,2013-03-18 05:30:00,
2013-03-18 01:35:00,18.2,3.0,30.34,NNE,12,1.0,2.0,51,0.00,,,0.00,WUHU216DAVISVP2,2013-03-18 05:35:00,
2013-03-18 01:40:00,17.9,3.6,30.35,NNE,12,0.0,2.0,53,0.00,,,0.00,WUHU216DAVISVP2,2013-03-18 05:40:00,
2013-03-18 01:45:00,17.5,3.7,30.35,NNE,12,0.0,2.0,54,0.00,,,0.00,WUHU216DAVISVP2,2013-03-18 05:45:00,
2013-03-18 01:50:00,17.3,3.1,30.35,NNE,12,0.0,2.0,53,0.00,,,0.00,WUHU216DAVISVP2,2013-03-18 05:50:00,
2013-03-18 01:55:00,17.0,2.8,30.35,NNE,12,0.0,0.0,53,0.00,,,0.00,WUHU216DAVISVP2,2013-03-18 05:55:00,
2013-03-18 02:00:00,16.8,3.0,30.35,NNE,12,0.0,0.0,54,0.00,,,0.00,WUHU216DAVISVP2,2013-03-18 06:00:00,
2013-03-18 02:05:00,16.6,3.6,30.35,NNE,12,0.0,0.0,56,0.00,,,0.00,WUHU216DAVISVP2,2013-03-18 06:05:00,
2013-03-18 02:10:00,16.3,3.3,30.35,NNE,12,0.0,0.0,56,0.00,,,0.00,WUHU216DAVISVP2,2013-03-18 06:10:00,
2013-03-18 02:15:00,16.0,3.4,30.35,NNE,12,0.0,0.0,57,0.00,,,0.00,WUHU216DAVISVP2,2013-03-18 06:15:00,
2013-03-18 02:20:00,15.9,3.7,30.35,NNE,12,0.0,0.0,58,0.00,,,0.00,WUHU216DAVISVP2,2013-03-18 06:20:00,
2013-03-18 02:25:00,15.8,4.0,30.36,NNE,12,0.0,0.0,59,0.00,,,0.00,WUHU216DAVISVP2,2013-03-18 06:25:00,
2013-03-18 02:30:00,15.6,4.2,30.36,NNE,12,0.0,0.0,60,0.00,,,0.00,WUHU216DAVISVP2,2013-03-18 06:30:00,
2013-03-18 02:35:00,15.4,4.0,30.36,NNE,12,0.0,0.0,60,0.00,,,0.00,WUHU216DAVISVP2,2013-03-18 06:35:00,
2013-03-18 02:40:00,15.2,5.2,30.36,NNE,12,0.0,0.0,64,0.00,,,0.00,WUHU216DAVISVP2,2013-03-18 06:40:00,
2013-03-18 02:45:00,15.1,4.5,30.36,NNE,12,0.0,0.0,62,0.00,,,0.00,WUHU216DAVISVP2,2013-03-18 06:45:00,
2013-03-18 02:50:00,14.9,3.5,30.36,NNE,12,0.0,0.0,60,0.00,,,0.00,WUHU216DAVISVP2,2013-03-18 06:50:00,
2013-03-18 02:55:00,14.7,4.4,30.36,NNE,12,0.0,0.0,63,0.00,,,0.00,WUHU216DAVISVP2,2013-03-18 06:55:00,
2013-03-18 03:00:00,14.5,4.2,30.37,NNE,12,1.0,1.0,63,0.00,,,0.00,WUHU216DAVISVP2,2013-03-18 07:00:00,
2013-03-18 03:05:00,14.3,4.4,30.37,NNE,12,0.0,1.0,64,0.00,,,0.00,WUHU216DAVISVP2,2013-03-18 07:05:00,
2013-03-18 03:10:00,14.1,4.2,30.36,NNE,12,1.0,1.0,64,0.00,,,0.00,WUHU216DAVISVP2,2013-03-18 07:10:00,
2013-03-18 03:15:00,13.9,4.7,30.37,NNE,12,0.0,1.0,66,0.00,,,0.00,WUHU216DAVISVP2,2013-03-18 07:15:00,
2013-03-18 03:20:00,13.6,4.7,30.37,NNE,12,0.0,1.0,67,0.00,,,0.00,WUHU216DAVISVP2,2013-03-18 07:20:00,
2013-03-18 03:25:00,13.4,4.9,30.37,NNE,12,1.0,1.0,68,0.00,,,0.00,WUHU216DAVISVP2,2013-03-18 07:25:00,
2013-03-18 03:30:00,13.4,5.2,30.37,NNE,12,0.0,1.0,69,0.00,,,0.00,WUHU216DAVISVP2,2013-03-18 07:30:00,
2013-03-18 03:35:00,13.2,5.0,30.38,NNE,12,0.0,1.0,69,0.00,,,0.00,WUHU216DAVISVP2,2013-03-18 07:35:00,
2013-03-18 03:40:00,13.1,4.9,30.37,NNE,12,0.0,1.0,69,0.00,,,0.00,WUHU216DAVISVP2,2013-03-18 07:40:00,
2013-03-18 03:45:00,12.8,4.9,30.37,NNE,12,0.0,0.0,70,0.00,,,0.00,WUHU216DAVISVP2,2013-03-18 07:45:00,
2013-03-18 03:50:00,12.6,4.4,30.37,NNE,12,0.0,0.0,69,0.00,,,0.00,WUHU216DAVISVP2,2013-03-18 07:50:00,
2013-03-18 03:55:00,12.4,4.8,30.37,NNE,12,0.0,0.0,71,0.00,,,0.00,WUHU216DAVISVP2,2013-03-18 07:55:00,
2013-03-18 04:00:00,12.3,4.7,30.37,NNE,12,0.0,0.0,71,0.00,,,0.00,WUHU216DAVISVP2,2013-03-18 08:00:00,
2013-03-18 04:05:00,12.2,4.6,30.37,NNE,12,0.0,0.0,71,0.00,,,0.00,WUHU216DAVISVP2,2013-03-18 08:05:00,
2013-03-18 04:10:00,12.1,4.5,30.37,NNE,12,0.0,1.0,71,0.00,,,0.00,WUHU216DAVISVP2,2013-03-18 08:10:00,
2013-03-18 04:15:00,12.1,4.8,30.37,NNE,12,0.0,1.0,72,0.00,,,0.00,WUHU216DAVISVP2,2013-03-18 08:15:00,
2013-03-18 04:20:00,12.0,5.0,30.37,NNE,12,0.0,1.0,73,0.00,,,0.00,WUHU216DAVISVP2,2013-03-18 08:20:00,
2013-03-18 04:25:00,11.9,4.9,30.37,NNE,12,0.0,1.0,73,0.00,,,0.00,WUHU216DAVISVP2,2013-03-18 08:25:00,
2013-03-18 04:30:00,11.7,4.8,30.37,NNE,12,0.0,0.0,73,0.00,,,0.00,WUHU216DAVISVP2,2013-03-18 08:30:00,
2013-03-18 04:35:00,11.7,5.0,30.38,NNE,12,0.0,1.0,74,0.00,,,0.00,WUHU216DAVISVP2,2013-03-18 08:35:00,
2013-03-18 04:40:00,11.6,5.2,30.37,NNE,12,0.0,1.0,75,0.00,,,0.00,WUHU216DAVISVP2,2013-03-18 08:40:00,
2013-03-18 04:45:00,11.5,5.4,30.38,NNE,12,0.0,1.0,76,0.00,,,0.00,WUHU216DAVISVP2,2013-03-18 08:45:00,
2013-03-18 04:50:00,11.4,5.3,30.38,NNE,12,0.0,0.0,76,0.00,,,0.00,WUHU216DAVISVP2,2013-03-18 08:50:00,
2013-03-18 04:55:00,11.3,5.2,30.38,NNE,12,0.0,0.0,76,0.00,,,0.00,WUHU216DAVISVP2,2013-03-18 08:55:00,
2013-03-18 05:00:00,11.5,5.1,30.38,NNE,12,0.0,0.0,75,0.00,,,0.00,WUHU216DAVISVP2,2013-03-18 09:00:00,
2013-03-18 05:05:00,11.6,5.2,30.38,NNE,12,0.0,0.0,75,0.00,,,0.00,WUHU216DAVISVP2,2013-03-18 09:05:00,
2013-03-18 05:10:00,11.6,5.2,30.38,NNE,12,0.0,0.0,75,0.00,,,0.00,WUHU216DAVISVP2,2013-03-18 09:10:00,
2013-03-18 05:15:00,11.6,5.2,30.39,NNE,12,0.0,0.0,75,0.00,,,0.00,WUHU216DAVISVP2,2013-03-18 09:15:00,
2013-03-18 05:20:00,11.6,5.2,30.39,NNE,12,0.0,0.0,75,0.00,,,0.00,WUHU216DAVISVP2,2013-03-18 09:20:00,
2013-03-18 05:25:00,11.6,5.2,30.39,NNE,12,0.0,0.0,75,0.00,,,0.00,WUHU216DAVISVP2,2013-03-18 09:25:00,
2013-03-18 05:30:00,11.4,5.0,30.39,NNE,12,0.0,0.0,75,0.00,,,0.00,WUHU216DAVISVP2,2013-03-18 09:30:00,
2013-03-18 05:35:00,11.4,5.0,30.39,NNE,12,0.0,1.0,75,0.00,,,0.00,WUHU216DAVISVP2,2013-03-18 09:35:00,
2013-03-18 05:40:00,11.3,4.9,30.39,NNE,12,0.0,1.0,75,0.00,,,0.00,WUHU216DAVISVP2,2013-03-18 09:40:00,
2013-03-18 05:45:00,11.3,5.2,30.39,NNE,12,0.0,1.0,76,0.00,,,0.00,WUHU216DAVISVP2,2013-03-18 09:45:00,
2013-03-18 05:50:00,11.3,4.9,30.40,NNE,12,0.0,1.0,75,0.00,,,0.00,WUHU216DAVISVP2,2013-03-18 09:50:00,
2013-03-18 05:55:00,11.3,5.2,30.40,NNE,12,0.0,0.0,76,0.00,,,0.00,WUHU216DAVISVP2,2013-03-18 09:55:00,
2013-03-18 06:00:00,11.1,5.0,30.40,NNE,12,0.0,0.0,76,0.00,,,0.00,WUHU216DAVISVP2,2013-03-18 10:00:00,
2013-03-18 06:05:00,10.9,4.8,30.40,NNE,12,0.0,0.0,76,0.00,,,0.00,WUHU216DAVISVP2,2013-03-18 10:05:00,
2013-03-18 06:10:00,10.8,4.7,30.41,NNE,12,0.0,0.0,76,0.00,,,0.00,WUHU216DAVISVP2,2013-03-18 10:10:00,
2013-03-18 06:15:00,10.7,4.9,30.41,NNE,12,0.0,0.0,77,0.00,,,0.00,WUHU216DAVISVP2,2013-03-18 10:15:00,
2013-03-18 06:20:00,10.6,4.8,30.41,NNE,12,0.0,0.0,77,0.00,,,0.00,WUHU216DAVISVP2,2013-03-18 10:20:00,
2013-03-18 06:25:00,10.4,4.9,30.41,NNE,12,0.0,0.0,78,0.00,,,0.00,WUHU216DAVISVP2,2013-03-18 10:25:00,
2013-03-18 06:30:00,10.2,4.7,30.41,NNE,12,0.0,0.0,78,0.00,,,0.00,WUHU216DAVISVP2,2013-03-18 10:30:00,
2013-03-18 06:35:00,10.0,4.8,30.41,NNE,12,0.0,0.0,79,0.00,,,0.00,WUHU216DAVISVP2,2013-03-18 10:35:00,
2013-03-18 06:40:00,9.8,4.6,30.42,NNE,12,0.0,0.0,79,0.00,,,0.00,WUHU216DAVISVP2,2013-03-18 10:40:00,
2013-03-18 06:45:00,9.7,4.5,30.42,NNE,12,0.0,0.0,79,0.00,,,0.00,WUHU216DAVISVP2,2013-03-18 10:45:00,
2013-03-18 06:50:00,9.5,4.6,30.42,NNE,12,0.0,0.0,80,0.00,,,0.00,WUHU216DAVISVP2,2013-03-18 10:50:00,
2013-03-18 06:55:00,9.4,4.7,30.42,NNE,12,0.0,0.0,81,0.00,,,0.00,WUHU216DAVISVP2,2013-03-18 10:55:00,
2013-03-18 07:00:00,9.2,4.5,30.42,NNE,12,0.0,0.0,81,0.00,,,0.00,WUHU216DAVISVP2,2013-03-18 11:00:00,
2013-03-18 07:05:00,9.1,4.7,30.42,NNE,12,0.0,0.0,82,0.00,,,0.00,WUHU216DAVISVP2,2013-03-18 11:05:00,
2013-03-18 07:10:00,9.1,4.7,30.42,NNE,12,0.0,0.0,82,0.00,,,0.00,WUHU216DAVISVP2,2013-03-18 11:10:00,
2013-03-18 07:15:00,9.1,5.0,30.43,NNE,12,0.0,0.0,83,0.00,,,0.00,WUHU216DAVISVP2,2013-03-18 11:15:00,
2013-03-18 07:20:00,9.1,5.0,30.43,NNE,12,0.0,0.0,83,0.00,,,0.00,WUHU216DAVISVP2,2013-03-18 11:20:00,
2013-03-18 07:25:00,9.1,5.0,30.43,NNE,12,0.0,0.0,83,0.00,,,0.00,WUHU216DAVISVP2,2013-03-18 11:25:00,
2013-03-18 07:30:00,9.2,5.1,30.43,NNE,12,0.0,0.0,83,0.00,,,0.00,WUHU216DAVISVP2,2013-03-18 11:30:00,
2013-03-18 07:35:00,9.4,5.3,30.43,NNE,12,0.0,0.0,83,0.00,,,0.00,WUHU216DAVISVP2,2013-03-18 11:35:00,
2013-03-18 07:40:00,9.5,5.4,30.43,NNE,12,0.0,0.0,83,0.00,,,0.00,WUHU216DAVISVP2,2013-03-18 11:40:00,
2013-03-18 07:45:00,9.8,5.7,30.43,NNE,12,0.0,0.0,83,0.00,,,0.00,WUHU216DAVISVP2,2013-03-18 11:45:00,
2013-03-18 07:50:00,10.0,6.1,30.43,NNE,12,0.0,0.0,84,0.00,,,0.00,WUHU216DAVISVP2,2013-03-18 11:50:00,
2013-03-18 07:55:00,10.4,6.5,30.43,NNE,12,0.0,0.0,84,0.00,,,0.00,WUHU216DAVISVP2,2013-03-18 11:55:00,
2013-03-18 08:00:00,10.8,6.9,30.44,NNE,12,0.0,0.0,84,0.00,,,0.00,WUHU216DAVISVP2,2013-03-18 12:00:00,
2013-03-18 08:05:00,11.1,6.9,30.44,NNE,12,0.0,0.0,83,0.00,,,0.00,WUHU216DAVISVP2,2013-03-18 12:05:00,
2013-03-18 08:10:00,11.7,7.3,30.44,NNE,12,0.0,0.0,82,0.00,,,0.00,WUHU216DAVISVP2,2013-03-18 12:10:00,
2013-03-18 08:15:00,12.2,7.5,30.44,NNE,12,0.0,0.0,81,0.00,,,0.00,WUHU216DAVISVP2,2013-03-18 12:15:00,
2013-03-18 08:20:00,12.7,7.4,30.44,NNE,12,0.0,0.0,79,0.00,,,0.00,WUHU216DAVISVP2,2013-03-18 12:20:00,
2013-03-18 08:25:00,13.5,7.6,30.44,NNE,12,0.0,0.0,77,0.00,,,0.00,WUHU216DAVISVP2,2013-03-18 12:25:00,
2013-03-18 08:30:00,14.5,8.0,30.44,NNE,12,0.0,0.0,75,0.00,,,0.00,WUHU216DAVISVP2,2013-03-18 12:30:00,
2013-03-18 08:35:00,15.6,8.5,30.44,NNE,12,1.0,1.0,73,0.00,,,0.00,WUHU216DAVISVP2,2013-03-18 12:35:00,
2013-03-18 08:40:00,16.8,8.1,30.43,NNE,12,0.0,1.0,68,0.00,,,0.00,WUHU216DAVISVP2,2013-03-18 12:40:00,
2013-03-18 08:45:00,17.6,7.5,30.43,NNE,12,0.0,1.0,64,0.00,,,0.00,WUHU216DAVISVP2,2013-03-18 12:45:00,
2013-03-18 08:50:00,18.5,7.3,30.43,North,9,1.0,2.0,61,0.00,,,0.00,WUHU216DAVISVP2,2013-03-18 12:50:00,
2013-03-18 08:55:00,19.5,5.9,30.44,North,5,0.0,3.0,55,0.00,,,0.00,WUHU216DAVISVP2,2013-03-18 12:55:00,
2013-03-18 09:00:00,19.9,5.5,30.43,North,5,1.6,3.0,53,0.00,,,0.00,WUHU216DAVISVP2,2013-03-18 13:00:00,
2013-03-18 09:05:00,20.4,4.7,30.43,North,10,1.4,3.0,50,0.00,,,0.00,WUHU216DAVISVP2,2013-03-18 13:05:00,
2013-03-18 09:10:00,20.8,5.1,30.43,WNW,298,1.5,4.0,50,0.00,,,0.00,WUHU216DAVISVP2,2013-03-18 13:10:00,
2013-03-18 09:15:00,21.0,3.9,30.44,NE,38,3.0,4.0,47,0.00,,,0.00,WUHU216DAVISVP2,2013-03-18 13:15:00,
2013-03-18 09:20:00,21.3,4.1,30.43,North,350,2.1,4.0,47,0.00,,,0.00,WUHU216DAVISVP2,2013-03-18 13:20:00,
2013-03-18 09:25:00,21.8,4.1,30.43,WNW,292,3.0,4.0,46,0.00,,,0.00,WUHU216DAVISVP2,2013-03-18 13:25:00,
2013-03-18 09:30:00,22.0,3.3,30.43,NNW,348,2.1,4.0,44,0.00,,,0.00,WUHU216DAVISVP2,2013-03-18 13:30:00,
2013-03-18 09:35:00,22.3,3.5,30.43,WSW,255,1.8,4.0,44,0.00,,,0.00,WUHU216DAVISVP2,2013-03-18 13:35:00,
2013-03-18 09:40:00,22.6,3.3,30.43,WNW,298,2.5,5.0,43,0.00,,,0.00,WUHU216DAVISVP2,2013-03-18 13:40:00,
2013-03-18 09:45:00,22.9,3.6,30.43,NW,317,4.0,5.0,43,0.00,,,0.00,WUHU216DAVISVP2,2013-03-18 13:45:00,
2013-03-18 09:50:00,22.9,3.0,30.43,NW,317,1.0,5.0,42,0.00,,,0.00,WUHU216DAVISVP2,2013-03-18 13:50:00,
2013-03-18 09:55:00,23.1,3.4,30.43,SW,233,1.5,6.0,42,0.00,,,0.00,WUHU216DAVISVP2,2013-03-18 13:55:00,
2013-03-18 10:00:00,23.5,4.8,30.43,NW,314,2.0,6.0,44,0.00,,,0.00,WUHU216DAVISVP2,2013-03-18 14:00:00,
2013-03-18 10:05:00,23.6,2.0,30.43,SW,236,1.6,6.0,39,0.00,,,0.00,WUHU216DAVISVP2,2013-03-18 14:05:00,
2013-03-18 10:10:00,23.9,2.9,30.43,WNW,297,2.4,6.0,40,0.00,,,0.00,WUHU216DAVISVP2,2013-03-18 14:10:00,
2013-03-18 10:15:00,24.3,2.7,30.42,WSW,242,2.0,6.0,39,0.00,,,0.00,WUHU216DAVISVP2,2013-03-18 14:15:00,
2013-03-18 10:20:00,24.8,2.6,30.42,North,359,1.5,6.0,38,0.00,,,0.00,WUHU216DAVISVP2,2013-03-18 14:20:00,
2013-03-18 10:25:00,25.3,2.4,30.42,North,5,4.0,4.0,37,0.00,,,0.00,WUHU216DAVISVP2,2013-03-18 14:25:00,
2013-03-18 10:30:00,25.3,1.8,30.42,NNE,26,3.0,6.0,36,0.00,,,0.00,WUHU216DAVISVP2,2013-03-18 14:30:00,
2013-03-18 10:35:00,25.3,1.4,30.42,NE,50,2.2,6.0,35,0.00,,,0.00,WUHU216DAVISVP2,2013-03-18 14:35:00,
2013-03-18 10:40:00,25.6,3.5,30.42,NNW,343,1.5,6.0,38,0.00,,,0.00,WUHU216DAVISVP2,2013-03-18 14:40:00,
2013-03-18 10:45:00,25.8,1.9,30.42,North,2,2.2,6.0,35,0.00,,,0.00,WUHU216DAVISVP2,2013-03-18 14:45:00,
2013-03-18 10:50:00,25.8,3.1,30.42,SW,234,1.3,4.0,37,0.00,,,0.00,WUHU216DAVISVP2,2013-03-18 14:50:00,
2013-03-18 10:55:00,26.2,4.0,30.42,West,259,0.0,4.0,38,0.00,,,0.00,WUHU216DAVISVP2,2013-03-18 14:55:00,
2013-03-18 11:00:00,26.6,3.8,30.42,West,259,1.5,4.0,37,0.00,,,0.00,WUHU216DAVISVP2,2013-03-18 15:00:00,
2013-03-18 11:05:00,26.7,2.5,30.41,North,10,2.6,6.0,35,0.00,,,0.00,WUHU216DAVISVP2,2013-03-18 15:05:00,
2013-03-18 11:10:00,26.7,1.8,30.41,North,349,2.6,6.0,34,0.00,,,0.00,WUHU216DAVISVP2,2013-03-18 15:10:00,
2013-03-18 11:15:00,26.9,2.6,30.41,North,5,1.0,6.0,35,0.00,,,0.00,WUHU216DAVISVP2,2013-03-18 15:15:00,
2013-03-18 11:20:00,27.2,2.9,30.41,North,357,1.3,6.0,35,0.00,,,0.00,WUHU216DAVISVP2,2013-03-18 15:20:00,
2013-03-18 11:25:00,27.6,3.3,30.41,West,281,3.0,5.0,35,0.00,,,0.00,WUHU216DAVISVP2,2013-03-18 15:25:00,
2013-03-18 11:30:00,27.7,2.1,30.41,WNW,284,1.8,6.0,33,0.00,,,0.00,WUHU216DAVISVP2,2013-03-18 15:30:00,
2013-03-18 11:35:00,27.9,1.6,30.41,SW,219,3.1,6.0,32,0.00,,,0.00,WUHU216DAVISVP2,2013-03-18 15:35:00,
2013-03-18 11:40:00,27.9,1.6,30.41,North,10,1.0,6.0,32,0.00,,,0.00,WUHU216DAVISVP2,2013-03-18 15:40:00,
2013-03-18 11:45:00,28.5,3.0,30.41,South,182,1.6,6.0,33,0.00,,,0.00,WUHU216DAVISVP2,2013-03-18 15:45:00,
2013-03-18 11:50:00,29.0,4.1,30.40,South,169,1.0,6.0,34,0.00,,,0.00,WUHU216DAVISVP2,2013-03-18 15:50:00,
2013-03-18 11:55:00,29.7,3.9,30.40,South,169,1.3,5.0,33,0.00,,,0.00,WUHU216DAVISVP2,2013-03-18 15:55:00,
2013-03-18 12:00:00,30.2,2.3,30.40,SW,220,1.8,5.0,30,0.00,,,0.00,WUHU216DAVISVP2,2013-03-18 16:00:00,
2013-03-18 12:05:00,30.3,3.2,30.40,NNW,348,3.0,5.0,31,0.00,,,0.00,WUHU216DAVISVP2,2013-03-18 16:05:00,
2013-03-18 12:10:00,30.2,2.4,30.40,WSW,238,3.0,4.0,30,0.00,,,0.00,WUHU216DAVISVP2,2013-03-18 16:10:00,
2013-03-18 12:15:00,30.3,3.0,30.40,East,99,2.8,5.0,31,0.00,,,0.00,WUHU216DAVISVP2,2013-03-18 16:15:00,
2013-03-18 12:20:00,30.6,2.6,30.39,ENE,78,1.0,5.0,30,0.00,,,0.00,WUHU216DAVISVP2,2013-03-18 16:20:00,
2013-03-18 12:25:00,31.4,4.0,30.39,SW,217,1.3,5.0,31,0.00,,,0.00,WUHU216DAVISVP2,2013-03-18 16:25:00,
2013-03-18 12:30:00,31.7,2.8,30.39,NW,326,2.4,5.0,29,0.00,,,0.00,WUHU216DAVISVP2,2013-03-18 16:30:00,
2013-03-18 12:35:00,31.6,3.5,30.38,NNE,17,1.6,4.0,30,0.00,,,0.00,WUHU216DAVISVP2,2013-03-18 16:35:00,
2013-03-18 12:40:00,31.4,3.3,30.38,NNE,27,1.6,6.0,30,0.00,,,0.00,WUHU216DAVISVP2,2013-03-18 16:40:00,
2013-03-18 12:45:00,31.7,2.8,30.38,SW,214,2.5,6.0,29,0.00,,,0.00,WUHU216DAVISVP2,2013-03-18 16:45:00,
2013-03-18 12:50:00,31.9,3.7,30.38,WNW,293,1.6,6.0,30,0.00,,,0.00,WUHU216DAVISVP2,2013-03-18 16:50:00,
2013-03-18 12:55:00,32.1,3.2,30.38,NNW,340,2.9,6.0,29,0.00,,,0.00,WUHU216DAVISVP2,2013-03-18 16:55:00,
2013-03-18 13:00:00,32.3,5.5,30.38,NW,304,1.0,5.0,32,0.00,,,0.00,WUHU216DAVISVP2,2013-03-18 17:00:00,
2013-03-18 13:05:00,32.7,3.0,30.38,SSW,213,2.0,5.0,28,0.00,,,0.00,WUHU216DAVISVP2,2013-03-18 17:05:00,
2013-03-18 13:10:00,33.0,4.0,30.38,West,268,1.9,5.0,29,0.00,,,0.00,WUHU216DAVISVP2,2013-03-18 17:10:00,
2013-03-18 13:15:00,33.0,3.2,30.38,North,350,1.5,5.0,28,0.00,,,0.00,WUHU216DAVISVP2,2013-03-18 17:15:00,
2013-03-18 13:20:00,33.3,4.2,30.37,NNW,344,2.2,5.0,29,0.00,,,0.00,WUHU216DAVISVP2,2013-03-18 17:20:00,
2013-03-18 13:25:00,33.2,2.6,30.37,SSW,200,1.5,5.0,27,0.00,,,0.00,WUHU216DAVISVP2,2013-03-18 17:25:00,
2013-03-18 13:30:00,33.5,2.9,30.36,SSW,194,1.0,5.0,27,0.00,,,0.00,WUHU216DAVISVP2,2013-03-18 17:30:00,
2013-03-18 13:35:00,34.1,2.6,30.36,WSW,242,2.3,4.0,26,0.00,,,0.00,WUHU216DAVISVP2,2013-03-18 17:35:00,
2013-03-18 13:40:00,33.9,3.2,30.36,SSW,206,2.3,7.0,27,0.00,,,0.00,WUHU216DAVISVP2,2013-03-18 17:40:00,
2013-03-18 13:45:00,33.9,2.4,30.35,SSW,212,2.3,7.0,26,0.00,,,0.00,WUHU216DAVISVP2,2013-03-18 17:45:00,
2013-03-18 13:50:00,34.0,3.3,30.35,SE,136,2.0,7.0,27,0.00,,,0.00,WUHU216DAVISVP2,2013-03-18 17:50:00,
2013-03-18 13:55:00,34.1,3.4,30.35,SE,140,1.0,7.0,27,0.00,,,0.00,WUHU216DAVISVP2,2013-03-18 17:55:00,
2013-03-18 14:00:00,34.1,2.6,30.34,NNW,336,2.1,7.0,26,0.00,,,0.00,WUHU216DAVISVP2,2013-03-18 18:00:00,
2013-03-18 14:05:00,34.1,2.6,30.34,NE,36,1.5,5.0,26,0.00,,,0.00,WUHU216DAVISVP2,2013-03-18 18:05:00,
2013-03-18 14:10:00,34.2,2.7,30.34,NNE,27,2.7,5.0,26,0.00,,,0.00,WUHU216DAVISVP2,2013-03-18 18:10:00,
2013-03-18 14:15:00,34.5,2.1,30.34,NE,55,1.0,4.0,25,0.00,,,0.00,WUHU216DAVISVP2,2013-03-18 18:15:00,
2013-03-18 14:20:00,35.0,2.6,30.33,North,350,1.3,4.0,25,0.00,,,0.00,WUHU216DAVISVP2,2013-03-18 18:20:00,
2013-03-18 14:25:00,35.4,2.9,30.33,North,350,3.0,4.0,25,0.00,,,0.00,WUHU216DAVISVP2,2013-03-18 18:25:00,
2013-03-18 14:30:00,35.6,3.9,30.33,West,271,1.0,4.0,26,0.00,,,0.00,WUHU216DAVISVP2,2013-03-18 18:30:00,
2013-03-18 14:35:00,35.6,3.1,30.33,NE,40,1.0,4.0,25,0.00,,,0.00,WUHU216DAVISVP2,2013-03-18 18:35:00,
2013-03-18 14:40:00,35.9,5.0,30.32,NE,40,1.0,4.0,27,0.00,,,0.00,WUHU216DAVISVP2,2013-03-18 18:40:00,
2013-03-18 14:45:00,36.3,2.8,30.32,WSW,254,3.2,5.0,24,0.00,,,0.00,WUHU216DAVISVP2,2013-03-18 18:45:00,
2013-03-18 14:50:00,36.2,1.8,30.32,SSW,200,1.0,5.0,23,0.00,,,0.00,WUHU216DAVISVP2,2013-03-18 18:50:00,
2013-03-18 14:55:00,36.1,3.5,30.32,SE,145,1.3,5.0,25,0.00,,,0.00,WUHU216DAVISVP2,2013-03-18 18:55:00,
2013-03-18 15:00:00,36.5,3.8,30.31,SW,227,2.0,5.0,25,0.00,,,0.00,WUHU216DAVISVP2,2013-03-18 19:00:00,
2013-03-18 15:05:00,36.5,3.0,30.31,WSW,243,2.2,4.0,24,0.00,,,0.00,WUHU216DAVISVP2,2013-03-18 19:05:00,
2013-03-18 15:10:00,36.6,2.2,30.31,WNW,292,3.0,4.0,23,0.00,,,0.00,WUHU216DAVISVP2,2013-03-18 19:10:00,
2013-03-18 15:15:00,36.5,3.8,30.31,SW,234,4.0,5.0,25,0.00,,,0.00,WUHU216DAVISVP2,2013-03-18 19:15:00,
2013-03-18 15:20:00,36.4,2.9,30.31,WSW,251,1.4,6.0,24,0.00,,,0.00,WUHU216DAVISVP2,2013-03-18 19:20:00,
2013-03-18 15:25:00,36.6,3.9,30.30,North,355,1.0,6.0,25,0.00,,,0.00,WUHU216DAVISVP2,2013-03-18 19:25:00,
2013-03-18 15:30:00,36.5,2.1,30.30,NW,313,1.9,6.0,23,0.00,,,0.00,WUHU216DAVISVP2,2013-03-18 19:30:00,
2013-03-18 15:35:00,36.4,2.9,30.30,SW,217,2.0,6.0,24,0.00,,,0.00,WUHU216DAVISVP2,2013-03-18 19:35:00,
2013-03-18 15:40:00,36.5,3.8,30.30,WSW,240,2.0,5.0,25,0.00,,,0.00,WUHU216DAVISVP2,2013-03-18 19:40:00,
2013-03-18 15:45:00,36.5,3.0,30.30,SW,225,1.4,5.0,24,0.00,,,0.00,WUHU216DAVISVP2,2013-03-18 19:45:00,
2013-03-18 15:50:00,36.5,3.0,30.30,SSW,205,1.8,5.0,24,0.00,,,0.00,WUHU216DAVISVP2,2013-03-18 19:50:00,
2013-03-18 15:55:00,36.8,4.1,30.30,SSW,206,2.3,5.0,25,0.00,,,0.00,WUHU216DAVISVP2,2013-03-18 19:55:00,
2013-03-18 16:00:00,36.9,5.0,30.30,WNW,296,1.0,4.0,26,0.00,,,0.00,WUHU216DAVISVP2,2013-03-18 20:00:00,
2013-03-18 16:05:00,37.1,3.5,30.30,WSW,242,3.0,4.0,24,0.00,,,0.00,WUHU216DAVISVP2,2013-03-18 20:05:00,
2013-03-18 16:10:00,37.0,2.5,30.29,SW,227,2.4,4.0,23,0.00,,,0.00,WUHU216DAVISVP2,2013-03-18 20:10:00,
2013-03-18 16:15:00,37.0,2.5,30.29,SW,216,0.0,4.0,23,0.00,,,0.00,WUHU216DAVISVP2,2013-03-18 20:15:00,
2013-03-18 16:20:00,37.0,2.5,30.29,West,267,2.0,4.0,23,0.00,,,0.00,WUHU216DAVISVP2,2013-03-18 20:20:00,
2013-03-18 16:25:00,36.9,2.4,30.29,WSW,239,1.8,4.0,23,0.00,,,0.00,WUHU216DAVISVP2,2013-03-18 20:25:00,
2013-03-18 16:30:00,36.8,2.3,30.29,WSW,246,0.0,4.0,23,0.00,,,0.00,WUHU216DAVISVP2,2013-03-18 20:30:00,
2013-03-18 16:35:00,36.8,3.2,30.28,WSW,246,1.0,4.0,24,0.00,,,0.00,WUHU216DAVISVP2,2013-03-18 20:35:00,
2013-03-18 16:40:00,36.8,3.2,30.28,SSW,203,1.0,4.0,24,0.00,,,0.00,WUHU216DAVISVP2,2013-03-18 20:40:00,
2013-03-18 16:45:00,36.8,4.1,30.28,SSW,203,0.0,2.0,25,0.00,,,0.00,WUHU216DAVISVP2,2013-03-18 20:45:00,
2013-03-18 16:50:00,36.8,2.3,30.27,SSW,192,1.5,3.0,23,0.00,,,0.00,WUHU216DAVISVP2,2013-03-18 20:50:00,
2013-03-18 16:55:00,36.7,4.0,30.27,SSE,166,2.0,3.0,25,0.00,,,0.00,WUHU216DAVISVP2,2013-03-18 20:55:00,
2013-03-18 17:00:00,36.6,3.1,30.27,SSE,166,1.2,3.0,24,0.00,,,0.00,WUHU216DAVISVP2,2013-03-18 21:00:00,
2013-03-18 17:05:00,36.4,2.9,30.26,SSE,157,1.5,3.0,24,0.00,,,0.00,WUHU216DAVISVP2,2013-03-18 21:05:00,
2013-03-18 17:10:00,36.3,2.8,30.26,SSE,157,1.0,3.0,24,0.00,,,0.00,WUHU216DAVISVP2,2013-03-18 21:10:00,
2013-03-18 17:15:00,36.3,4.5,30.26,SE,130,1.3,3.0,26,0.00,,,0.00,WUHU216DAVISVP2,2013-03-18 21:15:00,
2013-03-18 17:20:00,36.3,4.5,30.25,SE,130,0.0,3.0,26,0.00,,,0.00,WUHU216DAVISVP2,2013-03-18 21:20:00,
2013-03-18 17:25:00,36.3,5.3,30.25,SE,130,1.0,3.0,27,0.00,,,0.00,WUHU216DAVISVP2,2013-03-18 21:25:00,
2013-03-18 17:30:00,36.2,4.4,30.25,SE,130,1.0,3.0,26,0.00,,,0.00,WUHU216DAVISVP2,2013-03-18 21:30:00,
2013-03-18 17:35:00,36.1,5.1,30.25,SE,134,1.0,2.0,27,0.00,,,0.00,WUHU216DAVISVP2,2013-03-18 21:35:00,
2013-03-18 17:40:00,36.0,5.0,30.25,SE,134,1.0,2.0,27,0.00,,,0.00,WUHU216DAVISVP2,2013-03-18 21:40:00,
2013-03-18 17:46:00,35.9,4.2,30.25,SE,133,1.3,2.0,26,0.00,,,0.00,WUHU216DAVISVP2,2013-03-18 21:46:00,
2013-03-18 17:51:00,35.8,4.9,30.25,SE,137,1.3,2.0,27,0.00,,,0.00,WUHU216DAVISVP2,2013-03-18 21:51:00,
2013-03-18 17:56:00,35.7,5.6,30.25,SSE,167,0.0,3.0,28,0.00,,,0.00,WUHU216DAVISVP2,2013-03-18 21:56:00,
2013-03-18 18:01:00,35.6,5.5,30.25,SSE,159,1.0,4.0,28,0.00,,,0.00,WUHU216DAVISVP2,2013-03-18 22:01:00,
2013-03-18 18:06:00,35.4,5.3,30.25,SSE,159,0.0,4.0,28,0.00,,,0.00,WUHU216DAVISVP2,2013-03-18 22:06:00,
2013-03-18 18:11:00,35.3,4.4,30.25,SSE,159,1.2,4.0,27,0.00,,,0.00,WUHU216DAVISVP2,2013-03-18 22:11:00,
2013-03-18 18:16:00,35.2,5.9,30.25,SSE,159,0.0,4.0,29,0.00,,,0.00,WUHU216DAVISVP2,2013-03-18 22:16:00,
2013-03-18 18:21:00,35.1,5.0,30.25,SSE,159,1.0,2.0,28,0.00,,,0.00,WUHU216DAVISVP2,2013-03-18 22:21:00,
2013-03-18 18:25:00,35.0,5.0,30.25,SSE,159,0.0,2.0,28,0.00,,,0.00,WUHU216DAVISVP2,2013-03-18 22:25:00,
2013-03-18 18:30:00,34.9,4.9,30.25,SSE,159,0.0,1.0,28,0.00,,,0.00,WUHU216DAVISVP2,2013-03-18 22:30:00,
2013-03-18 18:35:00,34.8,4.8,30.25,SSE,159,0.0,1.0,28,0.00,,,0.00,WUHU216DAVISVP2,2013-03-18 22:35:00,
2013-03-18 18:40:00,34.7,5.5,30.25,SSE,159,0.0,0.0,29,0.00,,,0.00,WUHU216DAVISVP2,2013-03-18 22:40:00,
2013-03-18 18:45:00,34.6,5.4,30.25,SSE,159,0.0,0.0,29,0.00,,,0.00,WUHU216DAVISVP2,2013-03-18 22:45:00,
2013-03-18 18:50:00,34.4,5.2,30.25,SSE,159,0.0,0.0,29,0.00,,,0.00,WUHU216DAVISVP2,2013-03-18 22:50:00,
2013-03-18 18:55:00,34.3,5.8,30.25,SSE,159,0.0,0.0,30,0.00,,,0.00,WUHU216DAVISVP2,2013-03-18 22:55:00,
2013-03-18 19:00:00,34.1,7.7,30.25,SSE,159,0.0,0.0,33,0.00,,,0.00,WUHU216DAVISVP2,2013-03-18 23:00:00,
2013-03-18 19:05:00,33.9,6.9,30.25,SSE,159,0.0,0.0,32,0.00,,,0.00,WUHU216DAVISVP2,2013-03-18 23:05:00,
2013-03-18 19:10:00,33.7,8.1,30.25,SSE,159,0.0,0.0,34,0.00,,,0.00,WUHU216DAVISVP2,2013-03-18 23:10:00,
2013-03-18 19:15:00,33.5,9.8,30.25,SSE,159,0.0,0.0,37,0.00,,,0.00,WUHU216DAVISVP2,2013-03-18 23:15:00,
2013-03-18 19:20:00,33.3,8.3,30.25,SSE,159,0.0,0.0,35,0.00,,,0.00,WUHU216DAVISVP2,2013-03-18 23:20:00,
2013-03-18 19:25:00,33.0,8.1,30.25,SSE,159,0.0,0.0,35,0.00,,,0.00,WUHU216DAVISVP2,2013-03-18 23:25:00,
2013-03-18 19:30:00,32.8,10.9,30.24,SSE,159,0.0,0.0,40,0.00,,,0.00,WUHU216DAVISVP2,2013-03-18 23:30:00,
2013-03-18 19:35:00,32.6,13.5,30.24,SSE,159,0.0,0.0,45,0.00,,,0.00,WUHU216DAVISVP2,2013-03-18 23:35:00,
2013-03-18 19:40:00,32.3,10.5,30.24,SSE,159,0.0,0.0,40,0.00,,,0.00,WUHU216DAVISVP2,2013-03-18 23:40:00,
2013-03-18 19:45:00,32.2,9.2,30.24,SSE,159,0.0,0.0,38,0.00,,,0.00,WUHU216DAVISVP2,2013-03-18 23:45:00,
2013-03-18 19:50:00,32.1,11.4,30.24,SSE,159,0.0,0.0,42,0.00,,,0.00,WUHU216DAVISVP2,2013-03-18 23:50:00,
2013-03-18 19:55:00,31.9,12.3,30.23,SSE,159,0.0,0.0,44,0.00,,,0.00,WUHU216DAVISVP2,2013-03-18 23:55:00,
2013-03-18 20:00:00,31.8,14.2,30.24,SSE,159,0.0,0.0,48,0.00,,,0.00,WUHU216DAVISVP2,2013-03-19 00:00:00,
2013-03-18 20:05:00,31.7,12.1,30.24,SSE,159,0.0,0.0,44,0.00,,,0.00,WUHU216DAVISVP2,2013-03-19 00:05:00,
2013-03-18 20:10:00,31.6,14.5,30.24,SSE,159,0.0,0.0,49,0.00,,,0.00,WUHU216DAVISVP2,2013-03-19 00:10:00,
2013-03-18 20:15:00,31.4,13.9,30.24,SSE,159,0.0,1.0,48,0.00,,,0.00,WUHU216DAVISVP2,2013-03-19 00:15:00,
2013-03-18 20:20:00,31.2,10.0,30.24,SSE,159,0.0,1.0,41,0.00,,,0.00,WUHU216DAVISVP2,2013-03-19 00:20:00,
2013-03-18 20:25:00,31.2,12.7,30.24,SSE,159,0.0,1.0,46,0.00,,,0.00,WUHU216DAVISVP2,2013-03-19 00:25:00,
2013-03-18 20:30:00,31.1,13.1,30.24,SSE,159,0.0,1.0,47,0.00,,,0.00,WUHU216DAVISVP2,2013-03-19 00:30:00,
2013-03-18 20:35:00,31.0,12.0,30.24,SSE,159,0.0,0.0,45,0.00,,,0.00,WUHU216DAVISVP2,2013-03-19 00:35:00,
2013-03-18 20:40:00,31.0,11.5,30.24,SSE,159,0.0,0.0,44,0.00,,,0.00,WUHU216DAVISVP2,2013-03-19 00:40:00,
2013-03-18 20:45:00,31.0,12.0,30.23,SSE,159,0.0,0.0,45,0.00,,,0.00,WUHU216DAVISVP2,2013-03-19 00:45:00,
2013-03-18 20:50:00,31.0,12.0,30.23,SSE,159,0.0,0.0,45,0.00,,,0.00,WUHU216DAVISVP2,2013-03-19 00:50:00,
2013-03-18 20:55:00,31.0,12.0,30.23,SSE,159,0.0,1.0,45,0.00,,,0.00,WUHU216DAVISVP2,2013-03-19 00:55:00,
2013-03-18 21:00:00,31.1,13.6,30.23,SSE,159,0.0,1.0,48,0.00,,,0.00,WUHU216DAVISVP2,2013-03-19 01:00:00,
2013-03-18 21:05:00,31.3,14.3,30.23,SSE,159,1.0,2.0,49,0.00,,,0.00,WUHU216DAVISVP2,2013-03-19 01:05:00,
2013-03-18 21:10:00,31.6,15.0,30.23,SE,145,0.0,2.0,50,0.00,,,0.00,WUHU216DAVISVP2,2013-03-19 01:10:00,
2013-03-18 21:15:00,31.9,15.8,30.23,SE,144,1.5,3.0,51,0.00,,,0.00,WUHU216DAVISVP2,2013-03-19 01:15:00,
2013-03-18 21:20:00,32.1,16.4,30.23,SE,144,1.0,3.0,52,0.00,,,0.00,WUHU216DAVISVP2,2013-03-19 01:20:00,
2013-03-18 21:25:00,32.2,17.0,30.23,SE,144,1.2,3.0,53,0.00,,,0.00,WUHU216DAVISVP2,2013-03-19 01:25:00,
2013-03-18 21:30:00,32.3,17.5,30.23,SE,144,1.0,3.0,54,0.00,,,0.00,WUHU216DAVISVP2,2013-03-19 01:30:00,
2013-03-18 21:35:00,32.3,17.5,30.23,SE,144,1.1,2.0,54,0.00,,,0.00,WUHU216DAVISVP2,2013-03-19 01:35:00,
2013-03-18 21:40:00,32.2,17.8,30.23,SE,144,1.1,3.0,55,0.00,,,0.00,WUHU216DAVISVP2,2013-03-19 01:40:00,
2013-03-18 21:45:00,32.2,18.7,30.23,SE,144,1.3,3.0,57,0.00,,,0.00,WUHU216DAVISVP2,2013-03-19 01:45:00,
2013-03-18 21:50:00,32.1,19.0,30.23,SE,144,1.2,3.0,58,0.00,,,0.00,WUHU216DAVISVP2,2013-03-19 01:50:00,
2013-03-18 21:55:00,32.0,19.3,30.23,SE,144,2.0,3.0,59,0.00,,,0.00,WUHU216DAVISVP2,2013-03-19 01:55:00,
2013-03-18 22:00:00,31.9,19.6,30.23,SE,144,1.0,3.0,60,0.00,,,0.00,WUHU216DAVISVP2,2013-03-19 02:00:00,
2013-03-18 22:05:00,31.8,19.5,30.23,SE,144,2.0,3.0,60,0.00,,,0.00,WUHU216DAVISVP2,2013-03-19 02:05:00,
2013-03-18 22:10:00,31.7,20.2,30.23,SSE,159,2.0,5.0,62,0.00,,,0.00,WUHU216DAVISVP2,2013-03-19 02:10:00,
2013-03-18 22:15:00,31.7,20.2,30.24,South,177,1.2,5.0,62,0.00,,,0.00,WUHU216DAVISVP2,2013-03-19 02:15:00,
2013-03-18 22:20:00,31.7,20.6,30.24,South,177,0.0,5.0,63,0.00,,,0.00,WUHU216DAVISVP2,2013-03-19 02:20:00,
2013-03-18 22:25:00,31.6,20.9,30.24,South,170,1.2,5.0,64,0.00,,,0.00,WUHU216DAVISVP2,2013-03-19 02:25:00,
2013-03-18 22:30:00,31.6,20.9,30.24,South,170,1.0,2.0,64,0.00,,,0.00,WUHU216DAVISVP2,2013-03-19 02:30:00,
2013-03-18 22:35:00,31.5,21.2,30.24,SSW,199,1.5,3.0,65,0.00,,,0.00,WUHU216DAVISVP2,2013-03-19 02:35:00,
2013-03-18 22:41:00,31.5,21.2,30.24,SSW,198,0.0,3.0,65,0.00,,,0.00,WUHU216DAVISVP2,2013-03-19 02:41:00,
2013-03-18 22:46:00,31.5,21.5,30.24,SSE,153,0.0,3.0,66,0.00,,,0.00,WUHU216DAVISVP2,2013-03-19 02:46:00,
2013-03-18 22:51:00,31.5,21.5,30.24,SSE,153,1.0,3.0,66,0.00,,,0.00,WUHU216DAVISVP2,2013-03-19 02:51:00,
2013-03-18 22:55:00,31.4,21.8,30.24,SE,136,1.2,3.0,67,0.00,,,0.00,WUHU216DAVISVP2,2013-03-19 02:55:00,
2013-03-18 23:00:00,31.5,21.9,30.24,SSE,157,1.6,3.0,67,0.00,,,0.00,WUHU216DAVISVP2,2013-03-19 03:00:00,
2013-03-18 23:06:00,31.4,21.8,30.23,SE,138,2.0,4.0,67,0.00,,,0.00,WUHU216DAVISVP2,2013-03-19 03:06:00,
2013-03-18 23:11:00,31.4,22.1,30.23,SE,138,1.0,4.0,68,0.00,,,0.00,WUHU216DAVISVP2,2013-03-19 03:11:00,
2013-03-18 23:16:00,31.4,22.1,30.23,SE,138,0.0,4.0,68,0.00,,,0.00,WUHU216DAVISVP2,2013-03-19 03:16:00,
2013-03-18 23:21:00,31.4,22.1,30.23,SE,138,1.0,4.0,68,0.00,,,0.00,WUHU216DAVISVP2,2013-03-19 03:21:00,
2013-03-18 23:27:00,31.3,22.4,30.23,SE,138,0.0,2.0,69,0.00,,,0.00,WUHU216DAVISVP2,2013-03-19 03:27:00,
2013-03-18 23:32:00,31.3,22.4,30.23,SE,138,0.0,2.0,69,0.00,,,0.00,WUHU216DAVISVP2,2013-03-19 03:32:00,
2013-03-18 23:37:00,31.2,22.3,30.22,SE,138,1.0,2.0,69,0.00,,,0.00,WUHU216DAVISVP2,2013-03-19 03:37:00,
2013-03-18 23:42:00,31.2,22.3,30.22,SE,138,0.0,2.0,69,0.00,,,0.00,WUHU216DAVISVP2,2013-03-19 03:42:00,
2013-03-18 23:47:00,31.2,22.6,30.22,SE,138,1.5,2.0,70,0.00,,,0.00,WUHU216DAVISVP2,2013-03-19 03:47:00,
2013-03-18 23:52:00,31.1,22.5,30.22,SE,138,1.0,2.0,70,0.00,,,0.00,WUHU216DAVISVP2,2013-03-19 03:52:00,
2013-03-18 23:57:00,31.1,23.2,30.22,SE,140,0.0,5.0,72,0.00,,,0.00,WUHU216DAVISVP2,2013-03-19 03:57:00,